createdAt,value
2017-10-04T00:00:33.075Z,64.00
2017-10-04T00:03:00.670Z,63.60
2017-10-04T00:05:28.330Z,63.70
2017-10-04T00:07:55.878Z,63.80
2017-10-04T00:10:23.494Z,64.50
2017-10-04T00:12:52.177Z,65.10
2017-10-04T00:15:19.710Z,65.10
2017-10-04T00:17:47.297Z,65.60
2017-10-04T00:20:14.889Z,65.70
2017-10-04T00:22:42.541Z,65.70
2017-10-04T00:25:10.198Z,65.80
2017-10-04T00:27:37.773Z,65.70
2017-10-04T00:30:05.326Z,66.00
2017-10-04T00:32:32.953Z,65.90
2017-10-04T00:35:00.491Z,66.00
2017-10-04T00:37:28.242Z,66.50
2017-10-04T00:39:55.806Z,66.90
2017-10-04T00:42:23.421Z,67.00
2017-10-04T00:44:50.966Z,67.10
2017-10-04T00:47:18.642Z,67.30
2017-10-04T00:49:46.304Z,67.30
2017-10-04T00:52:14.360Z,67.20
2017-10-04T00:54:41.915Z,67.10
2017-10-04T00:57:09.533Z,67.20
2017-10-04T00:59:37.091Z,67.30
2017-10-04T01:02:04.713Z,67.20
2017-10-04T01:04:33.084Z,67.20
2017-10-04T01:07:00.694Z,67.30
2017-10-04T01:09:28.615Z,67.10
2017-10-04T01:11:56.364Z,66.90
2017-10-04T01:14:23.988Z,66.90
2017-10-04T01:16:52.353Z,66.50
2017-10-04T01:19:20.038Z,66.20
2017-10-04T01:21:47.573Z,66.20
2017-10-04T01:24:15.176Z,66.40
2017-10-04T01:26:43.501Z,66.70
2017-10-04T01:29:11.109Z,66.60
2017-10-04T01:31:38.668Z,66.90
2017-10-04T01:34:06.291Z,66.40
2017-10-04T01:36:33.886Z,66.60
2017-10-04T01:39:01.469Z,66.60
2017-10-04T01:41:29.016Z,66.60
2017-10-04T01:43:56.593Z,66.70
2017-10-04T01:46:24.237Z,66.30
2017-10-04T01:48:51.881Z,65.70
2017-10-04T01:51:19.442Z,65.90
2017-10-04T01:53:47.272Z,66.00
2017-10-04T01:56:14.882Z,66.60
2017-10-04T01:58:42.447Z,67.10
2017-10-04T02:01:10.097Z,67.50
2017-10-04T02:03:37.665Z,67.50
2017-10-04T02:06:05.285Z,67.70
2017-10-04T02:08:32.877Z,67.70
2017-10-04T02:11:00.482Z,67.80
2017-10-04T02:13:28.033Z,67.50
2017-10-04T02:15:55.670Z,67.60
2017-10-04T02:18:23.257Z,67.70
2017-10-04T02:20:51.638Z,67.30
2017-10-04T02:23:19.985Z,66.70
2017-10-04T02:25:47.610Z,66.10
2017-10-04T02:28:15.170Z,66.40
2017-10-04T02:30:42.761Z,66.50
2017-10-04T02:33:11.881Z,66.10
2017-10-04T02:38:08.425Z,65.60
2017-10-04T02:40:36.106Z,66.60
2017-10-04T02:43:03.733Z,67.10
2017-10-04T02:45:31.353Z,67.60
2017-10-04T02:47:58.913Z,67.90
2017-10-04T02:50:26.452Z,67.90
2017-10-04T02:52:55.173Z,67.30
2017-10-04T02:55:22.730Z,67.10
2017-10-04T02:57:50.331Z,67.40
2017-10-04T03:00:17.882Z,68.60
2017-10-04T03:02:45.558Z,67.50
2017-10-04T03:05:13.107Z,67.60
2017-10-04T03:07:40.664Z,67.00
2017-10-04T03:10:08.265Z,67.20
2017-10-04T03:12:35.845Z,66.90
2017-10-04T03:15:03.485Z,66.60
2017-10-04T03:17:31.070Z,66.60
2017-10-04T03:19:58.623Z,66.10
2017-10-04T03:22:26.279Z,66.00
2017-10-04T03:24:54.257Z,66.20
2017-10-04T03:27:21.913Z,65.60
2017-10-04T03:29:49.449Z,65.30
2017-10-04T03:32:17.007Z,65.70
2017-10-04T03:34:44.597Z,66.00
2017-10-04T03:37:12.145Z,66.40
2017-10-04T03:39:39.785Z,66.00
2017-10-04T03:42:07.363Z,65.60
2017-10-04T03:44:34.960Z,65.10
2017-10-04T03:47:02.525Z,65.40
2017-10-04T03:49:30.901Z,66.00
2017-10-04T03:51:58.449Z,66.50
2017-10-04T03:54:26.073Z,65.60
2017-10-04T03:56:53.665Z,65.80
2017-10-04T03:59:21.293Z,65.70
2017-10-04T04:01:49.754Z,66.30
2017-10-04T04:04:17.338Z,66.90
2017-10-04T04:06:44.896Z,67.70
2017-10-04T04:09:12.486Z,68.00
2017-10-04T04:11:40.017Z,68.20
2017-10-04T04:14:07.625Z,67.90
2017-10-04T04:16:35.242Z,68.10
2017-10-04T04:19:02.825Z,68.40
2017-10-04T04:21:30.380Z,68.40
2017-10-04T04:23:57.941Z,68.10
2017-10-04T04:26:25.540Z,67.80
2017-10-04T04:28:53.125Z,67.90
2017-10-04T04:31:20.713Z,67.50
2017-10-04T04:33:48.269Z,67.50
2017-10-04T04:36:16.625Z,67.70
2017-10-04T04:38:55.738Z,67.20
2017-10-04T04:41:23.342Z,66.20
2017-10-04T04:43:50.901Z,65.90
2017-10-04T04:46:18.481Z,65.60
2017-10-04T04:48:46.016Z,65.60
2017-10-04T04:51:13.596Z,66.00
2017-10-04T04:53:41.193Z,66.40
2017-10-04T04:56:08.834Z,67.30
2017-10-04T04:58:36.392Z,67.70
2017-10-04T05:01:04.422Z,67.80
2017-10-04T05:03:32.034Z,67.40
2017-10-04T05:05:59.597Z,67.50
2017-10-04T05:08:27.273Z,67.60
2017-10-04T05:10:55.577Z,67.70
2017-10-04T05:13:23.237Z,67.40
2017-10-04T05:15:50.790Z,68.00
2017-10-04T05:18:18.409Z,68.60
2017-10-04T05:20:45.970Z,68.20
2017-10-04T05:23:13.569Z,68.50
2017-10-04T05:25:41.185Z,68.00
2017-10-04T05:28:08.790Z,67.00
2017-10-04T05:30:36.349Z,66.60
2017-10-04T05:33:03.948Z,66.70
2017-10-04T05:35:31.511Z,67.10
2017-10-04T05:37:59.076Z,66.90
2017-10-04T05:40:26.685Z,66.90
2017-10-04T05:42:54.237Z,67.70
2017-10-04T05:45:22.763Z,68.30
2017-10-04T05:47:50.327Z,68.50
2017-10-04T05:50:17.934Z,68.60
2017-10-04T05:52:45.540Z,68.30
2017-10-04T05:55:13.201Z,68.60
2017-10-04T05:57:40.760Z,67.90
2017-10-04T06:00:08.340Z,67.60
2017-10-04T06:02:35.889Z,67.80
2017-10-04T06:05:03.493Z,68.00
2017-10-04T06:07:31.094Z,67.70
2017-10-04T06:09:59.172Z,67.50
2017-10-04T06:12:26.723Z,66.80
2017-10-04T06:14:54.281Z,66.30
2017-10-04T06:17:21.957Z,66.20
2017-10-04T06:19:49.514Z,66.20
2017-10-04T06:22:17.112Z,66.50
2017-10-04T06:24:44.683Z,66.50
2017-10-04T06:27:12.277Z,68.40
2017-10-04T06:29:40.209Z,66.60
2017-10-04T06:32:07.804Z,67.20
2017-10-04T06:37:04.281Z,67.40
2017-10-04T06:39:31.834Z,67.80
2017-10-04T06:41:59.421Z,67.90
2017-10-04T06:44:27.366Z,68.00
2017-10-04T06:51:52.793Z,68.10
2017-10-04T06:54:20.349Z,67.50
2017-10-04T06:56:47.945Z,67.40
2017-10-04T06:59:16.473Z,68.50
2017-10-04T07:01:45.172Z,68.60
2017-10-04T07:04:12.716Z,68.80
2017-10-04T07:06:40.276Z,68.80
2017-10-04T07:09:08.681Z,69.20
2017-10-04T07:11:36.228Z,69.00
2017-10-04T07:14:03.830Z,68.70
2017-10-04T07:16:31.385Z,68.50
2017-10-04T07:18:58.988Z,68.70
2017-10-04T07:21:27.291Z,68.30
2017-10-04T07:23:54.881Z,68.40
2017-10-04T07:26:22.479Z,69.00
2017-10-04T07:28:50.066Z,69.20
2017-10-04T07:31:17.623Z,69.60
2017-10-04T07:33:45.190Z,69.40
2017-10-04T07:36:12.733Z,70.00
2017-10-04T07:38:40.338Z,70.10
2017-10-04T07:41:07.890Z,69.90
2017-10-04T07:43:35.490Z,69.20
2017-10-04T07:46:03.900Z,68.20
2017-10-04T07:48:31.443Z,67.30
2017-10-04T07:50:59.045Z,66.90
2017-10-04T07:53:27.725Z,66.70
2017-10-04T07:55:55.345Z,65.90
2017-10-04T07:58:22.887Z,65.40
2017-10-04T08:00:50.510Z,66.10
2017-10-04T08:03:18.061Z,66.20
2017-10-04T08:05:45.664Z,66.30
2017-10-04T08:08:13.222Z,67.20
2017-10-04T08:10:40.809Z,67.40
2017-10-04T08:13:08.748Z,67.50
2017-10-04T08:15:36.336Z,67.70
2017-10-04T08:18:03.906Z,67.20
2017-10-04T08:20:31.901Z,66.60
2017-10-04T08:22:59.862Z,66.00
2017-10-04T08:25:27.477Z,65.00
2017-10-04T08:27:55.021Z,65.80
2017-10-04T08:30:22.568Z,65.40
2017-10-04T08:32:50.648Z,64.80
2017-10-04T08:35:18.207Z,63.20
2017-10-04T08:37:46.229Z,63.00
2017-10-04T08:40:14.961Z,62.90
2017-10-04T08:42:42.548Z,63.60
2017-10-04T08:45:10.109Z,60.10
2017-10-04T08:47:49.578Z,61.40
2017-10-04T08:50:17.158Z,60.50
2017-10-04T08:52:44.749Z,60.10
2017-10-04T08:55:13.437Z,59.60
2017-10-04T08:57:41.033Z,57.50
2017-10-04T09:00:08.590Z,55.80
2017-10-04T09:02:36.972Z,54.40
2017-10-04T09:05:16.202Z,52.80
2017-10-04T09:07:43.773Z,54.40
2017-10-04T09:10:11.321Z,55.10
2017-10-04T09:12:38.941Z,54.70
2017-10-04T09:15:06.479Z,52.20
2017-10-04T09:17:34.036Z,53.10
2017-10-04T09:20:02.762Z,51.90
2017-10-04T09:22:30.332Z,51.70
2017-10-04T09:24:57.962Z,52.60
2017-10-04T09:27:25.514Z,52.60
2017-10-04T09:29:53.109Z,51.60
2017-10-04T09:32:20.665Z,52.30
2017-10-04T09:34:48.850Z,52.70
2017-10-04T09:37:16.405Z,54.00
2017-10-04T09:39:44.006Z,53.00
2017-10-04T09:42:11.564Z,53.40
2017-10-04T09:44:39.146Z,54.70
2017-10-04T09:47:06.698Z,55.60
2017-10-04T09:49:34.293Z,55.50
2017-10-04T09:52:01.857Z,53.40
2017-10-04T09:54:29.457Z,52.40
2017-10-04T09:56:57.016Z,52.20
2017-10-04T09:59:24.658Z,51.40
2017-10-04T10:01:53.014Z,53.00
2017-10-04T10:04:20.582Z,54.10
2017-10-04T10:06:48.169Z,54.50
2017-10-04T10:09:15.727Z,53.80
2017-10-04T10:11:43.308Z,54.30
2017-10-04T10:14:10.844Z,55.00
2017-10-04T10:16:38.422Z,55.70
2017-10-04T10:19:07.759Z,56.10
2017-10-04T10:21:35.733Z,54.90
2017-10-04T10:24:04.046Z,54.60
2017-10-04T10:26:31.633Z,54.40
2017-10-04T10:28:59.194Z,56.30
2017-10-04T10:31:27.541Z,56.20
2017-10-04T10:33:55.099Z,55.60
2017-10-04T10:36:22.682Z,56.20
2017-10-04T10:38:50.989Z,55.00
2017-10-04T10:41:18.618Z,55.00
2017-10-04T10:43:46.177Z,55.80
2017-10-04T10:46:13.729Z,54.60
2017-10-04T10:48:41.321Z,54.40
2017-10-04T10:51:08.876Z,54.80
2017-10-04T10:53:36.855Z,55.30
2017-10-04T10:56:04.415Z,55.10
2017-10-04T10:58:32.013Z,55.90
2017-10-04T11:00:59.553Z,55.00
2017-10-04T11:03:27.146Z,54.80
2017-10-04T11:05:54.701Z,55.40
2017-10-04T11:08:22.686Z,55.00
2017-10-04T11:10:50.236Z,55.70
2017-10-04T11:13:17.831Z,56.30
2017-10-04T11:15:45.362Z,56.10
2017-10-04T11:18:12.950Z,54.80
2017-10-04T11:20:40.503Z,55.20
2017-10-04T11:23:08.943Z,55.20
2017-10-04T11:25:36.484Z,55.40
2017-10-04T11:28:04.070Z,56.30
2017-10-04T11:30:32.009Z,56.70
2017-10-04T11:33:00.002Z,56.90
2017-10-04T11:35:27.550Z,56.40
2017-10-04T11:37:55.154Z,56.20
2017-10-04T11:40:22.733Z,56.50
2017-10-04T11:42:50.266Z,57.40
2017-10-04T11:45:17.871Z,57.80
2017-10-04T11:47:46.173Z,58.00
2017-10-04T11:50:13.757Z,57.80
2017-10-04T11:52:41.698Z,57.20
2017-10-04T11:55:11.807Z,56.70
2017-10-04T11:57:40.167Z,57.20
2017-10-04T12:00:07.746Z,57.90
2017-10-04T12:02:35.297Z,57.20
2017-10-04T12:05:02.901Z,57.40
2017-10-04T12:07:30.842Z,57.40
2017-10-04T12:09:58.471Z,57.80
2017-10-04T12:12:26.028Z,57.70
2017-10-04T12:14:53.649Z,57.20
2017-10-04T12:17:21.247Z,56.30
2017-10-04T12:19:52.109Z,55.90
2017-10-04T12:22:19.661Z,56.50
2017-10-04T12:24:47.262Z,57.00
2017-10-04T12:27:14.818Z,56.90
2017-10-04T12:29:42.418Z,56.80
2017-10-04T12:32:09.976Z,56.80
2017-10-04T12:34:37.562Z,56.00
2017-10-04T12:37:05.117Z,56.00
2017-10-04T12:39:32.705Z,56.70
2017-10-04T12:42:01.028Z,56.30
2017-10-04T12:44:28.643Z,56.20
2017-10-04T12:46:56.197Z,56.30
2017-10-04T12:49:23.758Z,55.50
2017-10-04T12:51:51.362Z,56.10
2017-10-04T12:54:18.921Z,56.00
2017-10-04T12:56:46.534Z,56.20
2017-10-04T12:59:14.859Z,56.00
2017-10-04T13:01:43.215Z,56.10
2017-10-04T13:04:10.774Z,56.70
2017-10-04T13:06:38.351Z,56.90
2017-10-04T13:09:05.910Z,57.30
2017-10-04T13:11:33.495Z,55.60
2017-10-04T13:14:01.049Z,56.00
2017-10-04T13:16:29.402Z,55.50
2017-10-04T13:18:56.961Z,56.00
2017-10-04T13:21:24.541Z,55.10
2017-10-04T13:23:52.102Z,55.20
2017-10-04T13:26:19.702Z,53.90
2017-10-04T13:28:47.256Z,54.20
2017-10-04T13:31:14.870Z,53.20
2017-10-04T13:33:42.430Z,53.30
2017-10-04T13:36:09.970Z,52.80
2017-10-04T13:38:37.545Z,53.00
2017-10-04T13:41:05.087Z,52.50
2017-10-04T13:43:32.670Z,51.90
2017-10-04T13:46:00.217Z,51.80
2017-10-04T13:48:27.822Z,52.20
2017-10-04T13:50:55.422Z,50.80
2017-10-04T13:53:23.011Z,51.30
2017-10-04T13:55:50.564Z,51.50
2017-10-04T13:58:18.153Z,50.70
2017-10-04T14:00:45.709Z,51.20
2017-10-04T14:03:13.316Z,50.30
2017-10-04T14:05:40.875Z,50.30
2017-10-04T14:08:08.445Z,50.00
2017-10-04T14:10:35.990Z,49.50
2017-10-04T14:13:03.570Z,48.20
2017-10-04T14:15:31.123Z,48.50
2017-10-04T14:17:58.726Z,47.50
2017-10-04T14:20:26.288Z,48.10
2017-10-04T14:22:53.842Z,48.10
2017-10-04T14:25:21.441Z,48.30
2017-10-04T14:27:49.128Z,48.90
2017-10-04T14:30:17.436Z,48.70
2017-10-04T14:32:44.988Z,48.70
2017-10-04T14:35:12.698Z,47.80
2017-10-04T14:37:40.257Z,46.50
2017-10-04T14:40:07.834Z,47.00
2017-10-04T14:42:35.390Z,46.90
2017-10-04T14:45:02.989Z,46.20
2017-10-04T14:47:30.541Z,46.80
2017-10-04T14:49:58.132Z,46.40
2017-10-04T14:52:25.669Z,46.80
2017-10-04T14:54:53.265Z,46.90
2017-10-04T14:57:20.826Z,46.40
2017-10-04T14:59:48.460Z,47.20
2017-10-04T15:02:16.048Z,47.30
2017-10-04T15:04:43.630Z,47.40
2017-10-04T15:07:11.177Z,47.30
2017-10-04T15:09:38.769Z,46.40
2017-10-04T15:12:06.330Z,46.40
2017-10-04T15:14:33.919Z,46.30
2017-10-04T15:17:01.495Z,46.70
2017-10-04T15:19:29.081Z,48.40
2017-10-04T15:21:56.635Z,48.10
2017-10-04T15:24:24.270Z,49.70
2017-10-04T15:26:51.829Z,49.60
2017-10-04T15:29:19.393Z,50.00
2017-10-04T15:31:47.091Z,50.70
2017-10-04T15:34:23.588Z,49.50
2017-10-04T15:36:51.945Z,49.60
2017-10-04T15:39:19.509Z,49.10
2017-10-04T15:41:47.075Z,47.90
2017-10-04T15:44:14.627Z,50.20
2017-10-04T15:46:42.969Z,49.40
2017-10-04T15:49:10.915Z,50.10
2017-10-04T15:51:38.492Z,50.80
2017-10-04T15:54:06.437Z,50.20
2017-10-04T15:56:34.018Z,51.20
2017-10-04T15:59:01.553Z,51.30
2017-10-04T16:01:29.134Z,51.30
2017-10-04T16:03:56.692Z,51.00
2017-10-04T16:06:24.663Z,49.50
2017-10-04T16:08:52.218Z,50.10
2017-10-04T16:11:19.855Z,50.40
2017-10-04T16:13:58.859Z,50.90
2017-10-04T16:16:26.458Z,51.50
2017-10-04T16:18:54.408Z,51.80
2017-10-04T16:21:22.743Z,52.30
2017-10-04T16:23:50.361Z,52.00
2017-10-04T16:26:18.018Z,52.50
2017-10-04T16:28:45.973Z,52.70
2017-10-04T16:31:13.530Z,52.80
2017-10-04T16:33:41.146Z,53.20
2017-10-04T16:36:08.704Z,53.60
2017-10-04T16:38:36.308Z,53.50
2017-10-04T16:41:04.827Z,53.30
2017-10-04T16:43:32.858Z,53.20
2017-10-04T16:46:00.415Z,53.40
2017-10-04T16:48:28.014Z,53.50
2017-10-04T16:50:55.720Z,53.40
2017-10-04T16:53:23.319Z,53.40
2017-10-04T16:55:51.262Z,53.90
2017-10-04T16:58:18.838Z,54.20
2017-10-04T17:00:46.413Z,55.10
2017-10-04T17:03:16.320Z,55.30
2017-10-04T17:05:45.716Z,55.50
2017-10-04T17:08:14.259Z,55.60
2017-10-04T17:10:41.834Z,56.10
2017-10-04T17:13:16.323Z,56.00
2017-10-04T17:15:44.645Z,56.40
2017-10-04T17:18:12.207Z,56.30
2017-10-04T17:20:39.820Z,56.40
2017-10-04T17:23:08.143Z,56.40
2017-10-04T17:25:36.506Z,56.30
2017-10-04T17:28:08.785Z,56.10
2017-10-04T17:30:36.795Z,56.40
2017-10-04T17:33:05.506Z,56.00
2017-10-04T17:35:33.125Z,55.50
2017-10-04T17:38:00.702Z,55.00
2017-10-04T17:40:28.302Z,55.10
2017-10-04T17:42:56.613Z,54.40
2017-10-04T17:45:24.974Z,54.40
2017-10-04T17:47:52.527Z,54.60
2017-10-04T17:50:20.518Z,54.60
2017-10-04T17:52:48.094Z,54.70
2017-10-04T17:55:15.665Z,55.20
2017-10-04T17:57:43.217Z,56.00
2017-10-04T18:00:11.225Z,56.70
2017-10-04T18:02:38.803Z,57.20
2017-10-04T18:05:07.281Z,57.30
2017-10-04T18:07:34.858Z,57.00
2017-10-04T18:10:02.482Z,56.60
2017-10-04T18:12:30.914Z,56.30
2017-10-04T18:14:58.520Z,56.00
2017-10-04T18:17:26.105Z,56.50
2017-10-04T18:19:53.663Z,57.50
2017-10-04T18:22:22.031Z,58.00
2017-10-04T18:24:49.586Z,59.00
2017-10-04T18:27:17.188Z,59.40
2017-10-04T18:29:45.200Z,59.70
2017-10-04T18:32:12.782Z,59.90
2017-10-04T18:34:40.332Z,60.20
2017-10-04T18:37:08.693Z,60.60
2017-10-04T18:39:36.251Z,60.60
2017-10-04T18:42:04.969Z,60.90
2017-10-04T18:44:32.517Z,61.10
2017-10-04T18:47:00.110Z,61.10
2017-10-04T18:49:28.044Z,61.60
2017-10-04T18:51:55.681Z,61.60
2017-10-04T18:54:23.984Z,61.50
2017-10-04T18:56:53.562Z,61.80
2017-10-04T18:59:22.970Z,62.20
2017-10-04T19:01:50.556Z,62.40
2017-10-04T19:04:18.106Z,62.70
2017-10-04T19:06:45.741Z,63.30
2017-10-04T19:09:13.299Z,63.40
2017-10-04T19:11:40.857Z,63.10
2017-10-04T19:14:08.497Z,63.00
2017-10-04T19:16:36.819Z,62.80
2017-10-04T19:19:04.454Z,63.30
2017-10-04T19:21:32.011Z,63.70
2017-10-04T19:23:59.602Z,63.70
2017-10-04T19:26:28.314Z,63.40
2017-10-04T19:28:56.666Z,63.50
2017-10-04T19:31:24.210Z,63.30
2017-10-04T19:33:51.781Z,63.40
2017-10-04T19:36:19.326Z,63.20
2017-10-04T19:38:46.920Z,62.80
2017-10-04T19:41:14.484Z,63.00
2017-10-04T19:43:42.110Z,63.20
2017-10-04T19:46:09.667Z,63.20
2017-10-04T19:48:37.226Z,63.40
2017-10-04T19:51:04.822Z,63.80
2017-10-04T19:53:32.383Z,63.80
2017-10-04T19:56:00.353Z,63.50
2017-10-04T19:58:28.305Z,63.50
2017-10-04T20:00:56.690Z,63.50
2017-10-04T20:05:53.588Z,63.40
2017-10-04T20:08:23.340Z,63.20
2017-10-04T20:10:50.974Z,63.00
2017-10-04T20:13:18.535Z,63.20
2017-10-04T20:15:46.608Z,63.00
2017-10-04T20:18:14.171Z,62.80
2017-10-04T20:20:41.789Z,62.80
2017-10-04T20:23:09.726Z,62.60
2017-10-04T20:25:37.455Z,62.60
2017-10-04T20:30:46.598Z,62.80
2017-10-04T20:33:14.956Z,62.20
2017-10-04T20:35:42.906Z,61.80
2017-10-04T20:38:11.262Z,61.70
2017-10-04T20:40:40.348Z,61.70
2017-10-04T20:43:09.112Z,62.00
2017-10-04T20:45:36.661Z,61.90
2017-10-04T20:48:04.254Z,61.60
2017-10-04T20:53:06.010Z,62.30
2017-10-04T20:55:33.593Z,62.20
2017-10-04T20:58:02.555Z,62.30
2017-10-04T21:00:31.613Z,62.10
2017-10-04T21:02:59.273Z,62.00
2017-10-04T21:05:26.830Z,62.10
2017-10-04T21:07:54.406Z,62.20
2017-10-04T21:10:21.962Z,62.40
2017-10-04T21:12:49.551Z,62.70
2017-10-04T21:15:17.166Z,62.50
2017-10-04T21:17:45.158Z,62.80
2017-10-04T21:20:12.714Z,63.20
2017-10-04T21:22:40.320Z,63.40
2017-10-04T21:25:07.874Z,63.90
2017-10-04T21:27:35.425Z,64.90
2017-10-04T21:32:31.985Z,65.40
2017-10-04T21:34:59.596Z,65.90
2017-10-04T21:37:27.546Z,66.20
2017-10-04T21:39:55.133Z,66.00
2017-10-04T21:44:51.655Z,65.90
2017-10-04T21:47:19.213Z,66.10
2017-10-04T21:49:46.874Z,66.30
2017-10-04T21:52:14.821Z,66.70
2017-10-04T21:54:42.830Z,66.60
2017-10-04T21:57:10.389Z,66.50
2017-10-04T21:59:38.704Z,66.40
2017-10-04T22:02:06.330Z,66.00
2017-10-04T22:04:33.881Z,65.70
2017-10-04T22:07:01.434Z,65.10
2017-10-04T22:09:29.908Z,65.20
2017-10-04T22:11:57.457Z,64.90
2017-10-04T22:14:25.017Z,64.60
2017-10-04T22:16:53.209Z,64.50
2017-10-04T22:19:21.055Z,64.40
2017-10-04T22:21:49.023Z,64.30
2017-10-04T22:24:16.647Z,63.80
2017-10-04T22:26:44.778Z,63.90
2017-10-04T22:29:12.429Z,63.50
2017-10-04T22:31:40.089Z,63.60
2017-10-04T22:34:08.507Z,62.90
2017-10-04T22:36:36.062Z,62.80
2017-10-04T22:39:03.687Z,63.20
2017-10-04T22:41:31.240Z,63.20
2017-10-04T22:44:00.321Z,63.80
2017-10-04T22:46:27.983Z,64.30
2017-10-04T22:48:55.560Z,64.80
2017-10-04T22:51:23.874Z,65.20
2017-10-04T22:53:51.490Z,65.10
2017-10-04T22:56:19.036Z,65.10
2017-10-04T22:58:46.593Z,65.50
2017-10-04T23:01:14.206Z,65.30
2017-10-04T23:03:41.811Z,65.10
2017-10-04T23:06:09.802Z,65.00
2017-10-04T23:08:37.393Z,64.90
2017-10-04T23:11:05.001Z,64.80
2017-10-04T23:13:32.556Z,64.60
2017-10-04T23:16:00.165Z,64.50
2017-10-04T23:18:27.980Z,64.70
2017-10-04T23:20:55.537Z,65.00
2017-10-04T23:23:23.160Z,65.00
2017-10-04T23:25:50.755Z,65.50
2017-10-04T23:28:19.088Z,65.50
2017-10-04T23:30:46.796Z,65.70
2017-10-04T23:33:14.745Z,65.90
2017-10-04T23:35:42.424Z,65.90
2017-10-04T23:38:10.043Z,66.20
2017-10-04T23:40:37.598Z,66.40
2017-10-04T23:43:05.136Z,66.30
2017-10-04T23:45:32.740Z,66.10
2017-10-04T23:48:00.450Z,66.00
2017-10-04T23:50:28.079Z,65.90
2017-10-04T23:52:55.655Z,66.30
2017-10-04T23:55:23.218Z,66.50
2017-10-04T23:57:50.872Z,66.70
